sensor_id;sensor_type;location;lat;lon;timestamp;temperature;humidity
40556;DHT22;26250;45.422;11.100;2023-05-17T09:57:36;20.10;88.70
40556;DHT22;26250;45.422;11.100;2023-05-17T10:00:04;20.20;89.30
40556;DHT22;26250;45.422;11.100;2023-05-17T10:02:39;20.30;87.40
40556;DHT22;26250;45.422;11.100;2023-05-17T10:05:10;20.40;86.50
40556;DHT22;26250;45.422;11.100;2023-05-17T10:07:39;20.40;85.40
40556;DHT22;26250;45.422;11.100;2023-05-17T10:10:07;20.50;85.80
40556;DHT22;26250;45.422;11.100;2023-05-17T10:12:35;20.50;85.10
40556;DHT22;26250;45.422;11.100;2023-05-17T10:15:05;20.50;86.30
40556;DHT22;26250;45.422;11.100;2023-05-17T10:17:34;20.60;81.10
40556;DHT22;26250;45.422;11.100;2023-05-17T10:20:02;20.60;81.70
40556;DHT22;26250;45.422;11.100;2023-05-17T10:22:32;20.60;82.40
40556;DHT22;26250;45.422;11.100;2023-05-17T10:24:59;20.50;81.40
40556;DHT22;26250;45.422;11.100;2023-05-17T10:27:27;20.60;81.80
40556;DHT22;26250;45.422;11.100;2023-05-17T10:29:56;20.60;81.60
40556;DHT22;26250;45.422;11.100;2023-05-17T10:32:26;20.60;83.60
40556;DHT22;26250;45.422;11.100;2023-05-17T10:34:54;20.70;85.40
40556;DHT22;26250;45.422;11.100;2023-05-17T10:37:36;20.70;82.90
40556;DHT22;26250;45.422;11.100;2023-05-17T10:40:05;20.80;86.20
40556;DHT22;26250;45.422;11.100;2023-05-17T10:42:33;20.80;82.40
40556;DHT22;26250;45.422;11.100;2023-05-17T10:45:00;20.90;81.60
40556;DHT22;26250;45.422;11.100;2023-05-17T10:47:33;20.90;82.40
40556;DHT22;26250;45.422;11.100;2023-05-17T10:50:01;20.90;82.40
40556;DHT22;26250;45.422;11.100;2023-05-17T10:52:29;21.00;81.40
40556;DHT22;26250;45.422;11.100;2023-05-17T10:54:58;21.00;81.90
40556;DHT22;26250;45.422;11.100;2023-05-17T10:57:33;21.10;81.80
40556;DHT22;26250;45.422;11.100;2023-05-17T11:00:20;21.10;81.90
40556;DHT22;26250;45.422;11.100;2023-05-17T11:02:47;21.10;81.60
40556;DHT22;26250;45.422;11.100;2023-05-17T11:05:24;21.20;81.40
40556;DHT22;26250;45.422;11.100;2023-05-17T11:13:25;21.10;82.30
40556;DHT22;26250;45.422;11.100;2023-05-17T11:16:06;20.90;75.30
40556;DHT22;26250;45.422;11.100;2023-05-17T11:18:46;20.80;73.40
40556;DHT22;26250;45.422;11.100;2023-05-17T11:21:14;20.80;73.10
40556;DHT22;26250;45.422;11.100;2023-05-17T11:23:45;20.80;72.80
40556;DHT22;26250;45.422;11.100;2023-05-17T11:26:27;20.80;72.70
40556;DHT22;26250;45.422;11.100;2023-05-17T11:29:08;20.80;72.00
40556;DHT22;26250;45.422;11.100;2023-05-17T11:31:42;20.80;70.50
40556;DHT22;26250;45.422;11.100;2023-05-17T11:34:10;20.90;72.80
40556;DHT22;26250;45.422;11.100;2023-05-17T11:36:50;20.90;70.90
40556;DHT22;26250;45.422;11.100;2023-05-17T11:39:21;21.00;70.30
40556;DHT22;26250;45.422;11.100;2023-05-17T11:41:51;21.00;70.00
40556;DHT22;26250;45.422;11.100;2023-05-17T15:21:44;21.60;67.70
40556;DHT22;26250;45.422;11.100;2023-05-17T15:24:11;21.50;67.80
40556;DHT22;26250;45.422;11.100;2023-05-17T15:26:40;21.40;68.30
40556;DHT22;26250;45.422;11.100;2023-05-17T15:29:07;21.40;68.70
40556;DHT22;26250;45.422;11.100;2023-05-17T15:31:34;21.40;69.00
40556;DHT22;26250;45.422;11.100;2023-05-17T15:34:01;21.40;69.80
40556;DHT22;26250;45.422;11.100;2023-05-17T15:36:28;21.40;69.00
40556;DHT22;26250;45.422;11.100;2023-05-17T15:38:55;21.40;69.50
40556;DHT22;26250;45.422;11.100;2023-05-17T15:41:22;21.40;69.20
40556;DHT22;26250;45.422;11.100;2023-05-17T15:43:55;21.40;69.60
40556;DHT22;26250;45.422;11.100;2023-05-17T15:46:22;21.40;69.90
40556;DHT22;26250;45.422;11.100;2023-05-17T15:48:49;21.50;69.20
40556;DHT22;26250;45.422;11.100;2023-05-17T15:51:16;21.40;68.70
40556;DHT22;26250;45.422;11.100;2023-05-17T15:53:43;21.30;68.90
40556;DHT22;26250;45.422;11.100;2023-05-17T15:56:10;21.30;70.20
40556;DHT22;26250;45.422;11.100;2023-05-17T15:58:37;21.30;70.50
40556;DHT22;26250;45.422;11.100;2023-05-17T16:01:04;21.40;71.20
40556;DHT22;26250;45.422;11.100;2023-05-17T16:03:32;21.40;70.90
40556;DHT22;26250;45.422;11.100;2023-05-17T16:05:59;21.40;71.10
40556;DHT22;26250;45.422;11.100;2023-05-17T16:08:26;21.30;71.50
40556;DHT22;26250;45.422;11.100;2023-05-17T16:10:53;21.30;72.30
40556;DHT22;26250;45.422;11.100;2023-05-17T16:13:20;21.30;72.10
40556;DHT22;26250;45.422;11.100;2023-05-17T16:15:48;21.40;72.10
40556;DHT22;26250;45.422;11.100;2023-05-17T16:18:15;21.30;71.60
40556;DHT22;26250;45.422;11.100;2023-05-17T16:20:42;21.30;71.00
40556;DHT22;26250;45.422;11.100;2023-05-17T16:23:09;21.30;70.80
40556;DHT22;26250;45.422;11.100;2023-05-17T16:25:37;21.30;71.40
40556;DHT22;26250;45.422;11.100;2023-05-17T16:28:04;21.30;71.60
40556;DHT22;26250;45.422;11.100;2023-05-17T16:30:31;21.30;72.60
40556;DHT22;26250;45.422;11.100;2023-05-17T16:32:58;21.30;72.60
40556;DHT22;26250;45.422;11.100;2023-05-17T16:35:25;21.30;73.20
40556;DHT22;26250;45.422;11.100;2023-05-17T16:37:52;21.40;72.70
40556;DHT22;26250;45.422;11.100;2023-05-17T16:40:19;21.40;73.70
40556;DHT22;26250;45.422;11.100;2023-05-17T16:42:46;21.40;72.50
40556;DHT22;26250;45.422;11.100;2023-05-17T16:45:13;21.30;72.70
40556;DHT22;26250;45.422;11.100;2023-05-17T16:47:40;21.20;73.20
40556;DHT22;26250;45.422;11.100;2023-05-17T16:50:07;21.30;73.30
40556;DHT22;26250;45.422;11.100;2023-05-17T16:52:34;21.20;74.50
40556;DHT22;26250;45.422;11.100;2023-05-17T16:55:02;21.20;73.60
40556;DHT22;26250;45.422;11.100;2023-05-17T16:57:30;21.20;76.50
40556;DHT22;26250;45.422;11.100;2023-05-17T16:59:59;21.30;76.10
40556;DHT22;26250;45.422;11.100;2023-05-17T17:02:27;21.30;77.40
40556;DHT22;26250;45.422;11.100;2023-05-17T17:04:54;21.30;79.30
40556;DHT22;26250;45.422;11.100;2023-05-17T17:07:24;21.30;76.70
40556;DHT22;26250;45.422;11.100;2023-05-17T17:09:51;21.40;78.70
40556;DHT22;26250;45.422;11.100;2023-05-17T17:12:18;21.40;78.00
40556;DHT22;26250;45.422;11.100;2023-05-17T17:14:51;21.30;78.70
40556;DHT22;26250;45.422;11.100;2023-05-17T17:17:18;21.20;76.90
40556;DHT22;26250;45.422;11.100;2023-05-17T17:19:45;21.20;77.10
40556;DHT22;26250;45.422;11.100;2023-05-17T17:22:12;21.20;77.10
40556;DHT22;26250;45.422;11.100;2023-05-17T17:24:40;21.20;75.30
40556;DHT22;26250;45.422;11.100;2023-05-17T17:27:08;21.20;73.60
40556;DHT22;26250;45.422;11.100;2023-05-17T17:29:35;21.10;73.10
40556;DHT22;26250;45.422;11.100;2023-05-17T17:32:01;21.10;72.80
40556;DHT22;26250;45.422;11.100;2023-05-17T17:34:28;21.20;72.90
40556;DHT22;26250;45.422;11.100;2023-05-17T17:36:56;21.20;72.60
40556;DHT22;26250;45.422;11.100;2023-05-17T17:39:23;21.10;72.50
40556;DHT22;26250;45.422;11.100;2023-05-17T17:41:50;21.10;72.80
40556;DHT22;26250;45.422;11.100;2023-05-17T17:44:17;21.10;73.50
40556;DHT22;26250;45.422;11.100;2023-05-17T17:46:43;21.10;73.90
40556;DHT22;26250;45.422;11.100;2023-05-17T17:49:11;21.00;73.80
40556;DHT22;26250;45.422;11.100;2023-05-17T17:51:38;21.00;74.20
40556;DHT22;26250;45.422;11.100;2023-05-17T17:54:04;21.10;74.30
40556;DHT22;26250;45.422;11.100;2023-05-17T17:56:32;21.00;74.70
40556;DHT22;26250;45.422;11.100;2023-05-17T17:58:59;21.00;75.10
40556;DHT22;26250;45.422;11.100;2023-05-17T18:01:27;21.00;75.00
40556;DHT22;26250;45.422;11.100;2023-05-17T18:03:55;21.00;75.90
40556;DHT22;26250;45.422;11.100;2023-05-17T18:06:22;21.00;75.60
40556;DHT22;26250;45.422;11.100;2023-05-17T18:08:49;21.00;76.30
40556;DHT22;26250;45.422;11.100;2023-05-17T18:11:16;21.00;76.60
40556;DHT22;26250;45.422;11.100;2023-05-17T18:13:43;20.90;76.20
40556;DHT22;26250;45.422;11.100;2023-05-17T18:16:10;20.90;79.70
40556;DHT22;26250;45.422;11.100;2023-05-17T18:18:37;20.90;78.20
40556;DHT22;26250;45.422;11.100;2023-05-17T18:21:07;20.90;80.20
40556;DHT22;26250;45.422;11.100;2023-05-17T18:23:34;20.90;77.20
40556;DHT22;26250;45.422;11.100;2023-05-17T18:26:02;20.90;79.20
40556;DHT22;26250;45.422;11.100;2023-05-17T18:28:29;20.70;78.40
40556;DHT22;26250;45.422;11.100;2023-05-17T18:31:07;20.60;80.70
40556;DHT22;26250;45.422;11.100;2023-05-17T18:33:34;20.50;79.70
40556;DHT22;26250;45.422;11.100;2023-05-17T18:36:01;20.40;80.10
40556;DHT22;26250;45.422;11.100;2023-05-17T18:38:28;20.40;80.10
40556;DHT22;26250;45.422;11.100;2023-05-17T18:40:54;20.40;80.90
40556;DHT22;26250;45.422;11.100;2023-05-17T18:43:21;20.30;83.90
40556;DHT22;26250;45.422;11.100;2023-05-17T18:45:49;20.30;84.10
40556;DHT22;26250;45.422;11.100;2023-05-17T18:48:17;20.30;84.00
40556;DHT22;26250;45.422;11.100;2023-05-17T18:50:44;20.40;84.00
40556;DHT22;26250;45.422;11.100;2023-05-17T18:53:11;20.40;83.20
40556;DHT22;26250;45.422;11.100;2023-05-17T18:55:39;20.40;84.10
40556;DHT22;26250;45.422;11.100;2023-05-17T18:58:06;20.30;85.60
40556;DHT22;26250;45.422;11.100;2023-05-17T19:00:33;20.20;86.40
40556;DHT22;26250;45.422;11.100;2023-05-17T19:03:00;20.10;87.90
40556;DHT22;26250;45.422;11.100;2023-05-17T19:05:27;20.10;88.20
40556;DHT22;26250;45.422;11.100;2023-05-17T19:07:54;19.90;88.70
40556;DHT22;26250;45.422;11.100;2023-05-17T19:10:21;19.90;89.20
40556;DHT22;26250;45.422;11.100;2023-05-17T19:12:48;19.80;88.60
40556;DHT22;26250;45.422;11.100;2023-05-17T19:15:15;19.60;89.80
40556;DHT22;26250;45.422;11.100;2023-05-17T19:17:42;19.60;89.50
40556;DHT22;26250;45.422;11.100;2023-05-17T19:20:10;19.70;88.70
40556;DHT22;26250;45.422;11.100;2023-05-17T19:22:38;19.80;88.70
40556;DHT22;26250;45.422;11.100;2023-05-17T19:25:06;19.70;88.90
40556;DHT22;26250;45.422;11.100;2023-05-17T19:27:33;19.70;90.00
40556;DHT22;26250;45.422;11.100;2023-05-17T19:30:01;19.50;90.40
40556;DHT22;26250;45.422;11.100;2023-05-17T19:32:28;19.50;90.20
40556;DHT22;26250;45.422;11.100;2023-05-17T19:35:00;19.40;90.10
40556;DHT22;26250;45.422;11.100;2023-05-17T19:37:29;19.30;90.40
40556;DHT22;26250;45.422;11.100;2023-05-17T19:40:00;19.30;90.40
40556;DHT22;26250;45.422;11.100;2023-05-17T19:42:27;19.40;90.40
40556;DHT22;26250;45.422;11.100;2023-05-17T19:44:57;19.40;90.50
40556;DHT22;26250;45.422;11.100;2023-05-17T19:47:24;19.40;90.40
40556;DHT22;26250;45.422;11.100;2023-05-17T19:49:51;19.40;90.30
40556;DHT22;26250;45.422;11.100;2023-05-17T19:52:18;19.40;90.60
40556;DHT22;26250;45.422;11.100;2023-05-17T19:54:45;19.40;91.90
40556;DHT22;26250;45.422;11.100;2023-05-17T19:57:14;19.50;91.50
40556;DHT22;26250;45.422;11.100;2023-05-17T19:59:41;19.60;91.20
40556;DHT22;26250;45.422;11.100;2023-05-17T20:02:10;19.50;90.50
40556;DHT22;26250;45.422;11.100;2023-05-17T20:04:39;19.40;90.80
40556;DHT22;26250;45.422;11.100;2023-05-17T20:07:06;19.30;91.10
40556;DHT22;26250;45.422;11.100;2023-05-17T20:09:33;19.30;91.10
40556;DHT22;26250;45.422;11.100;2023-05-17T20:12:02;19.30;90.60
40556;DHT22;26250;45.422;11.100;2023-05-17T20:14:33;19.30;90.80
40556;DHT22;26250;45.422;11.100;2023-05-17T20:17:01;19.30;90.70
40556;DHT22;26250;45.422;11.100;2023-05-17T20:19:28;19.30;90.80
40556;DHT22;26250;45.422;11.100;2023-05-17T20:21:58;19.10;91.10
